Time;durP1;ratioP1;P1;durP2;ratioP2;P2;SDS_P1;SDS_P2;PMS_P1;PMS_P2;Temp;Humidity;BMP_temperature;BMP_pressure;BME280_temperature;BME280_humidity;BME280_pressure;Samples;Min_cycle;Max_cycle;Signal;HPM_P1;HPM_P2
2023/04/20 00:00:10;;;;;;;7.30;2.80;;;;;;;7.13;40.53;102193.59;5015190;28;20022;-53
2023/04/20 00:02:37;;;;;;;5.30;3.10;;;;;;;7.10;40.67;102193.72;5013437;28;20033;-55
2023/04/20 00:05:04;;;;;;;6.28;3.20;;;;;;;7.08;40.63;102195.53;5012826;28;20033;-52
2023/04/20 00:07:30;;;;;;;6.82;3.03;;;;;;;7.04;41.12;102193.06;5026195;28;20395;-53
2023/04/20 00:09:55;;;;;;;7.07;3.25;;;;;;;7.01;41.28;102194.94;5062826;28;20026;-55
2023/04/20 00:12:21;;;;;;;8.75;3.22;;;;;;;6.97;41.13;102191.56;5031307;28;20052;-53
2023/04/20 00:14:46;;;;;;;6.85;3.30;;;;;;;6.92;41.53;102180.31;5029216;28;20075;-55
2023/04/20 00:17:11;;;;;;;4.57;3.38;;;;;;;6.89;41.77;102187.50;5021588;28;20032;-51
2023/04/20 00:19:36;;;;;;;5.00;3.17;;;;;;;6.87;41.67;102187.56;5018607;28;20029;-54
2023/04/20 00:22:02;;;;;;;7.13;3.30;;;;;;;6.85;41.34;102182.34;5031969;28;20475;-52
2023/04/20 00:24:27;;;;;;;5.28;3.67;;;;;;;6.83;41.70;102176.28;5018734;28;20034;-51
2023/04/20 00:26:53;;;;;;;4.55;3.35;;;;;;;6.80;41.66;102168.47;5034021;28;20025;-50
2023/04/20 00:29:19;;;;;;;9.30;3.55;;;;;;;6.77;42.21;102168.56;5019999;28;20029;-51
2023/04/20 00:31:44;;;;;;;9.02;3.40;;;;;;;6.76;41.96;102160.72;5026773;28;20383;-52
2023/04/20 00:34:09;;;;;;;7.65;3.30;;;;;;;6.73;42.20;102156.44;5040498;28;20074;-54
2023/04/20 00:36:35;;;;;;;5.32;3.03;;;;;;;6.70;42.60;102148.63;5028503;28;20475;-55
2023/04/20 00:39:01;;;;;;;5.88;3.20;;;;;;;6.66;42.56;102149.66;5029527;28;20260;-55
2023/04/20 00:41:26;;;;;;;5.40;3.40;;;;;;;6.65;42.38;102148.81;5034264;28;20367;-54
2023/04/20 00:43:53;;;;;;;5.47;3.30;;;;;;;6.62;42.48;102140.16;5033312;28;20021;-51
2023/04/20 00:46:21;;;;;;;6.32;3.22;;;;;;;6.61;42.43;102138.41;5023275;28;20022;-52
2023/04/20 00:48:48;;;;;;;4.88;2.78;;;;;;;6.58;42.51;102136.78;5022099;28;20028;-53
2023/04/20 00:51:14;;;;;;;6.13;3.17;;;;;;;6.56;42.77;102135.09;5028110;28;20029;-51
2023/04/20 00:53:40;;;;;;;7.78;3.22;;;;;;;6.53;42.41;102129.94;5030231;28;20022;-53
2023/04/20 00:56:06;;;;;;;5.05;3.00;;;;;;;6.49;42.57;102126.56;5015634;28;20026;-54
2023/04/20 00:58:31;;;;;;;3.28;2.90;;;;;;;6.47;43.25;102126.63;5015113;28;20038;-54
2023/04/20 01:00:57;;;;;;;6.18;2.92;;;;;;;6.43;43.41;102122.38;5018876;28;20026;-52
2023/04/20 01:03:22;;;;;;;5.10;3.05;;;;;;;6.41;43.79;102116.31;5040748;28;20124;-53
2023/04/20 01:05:47;;;;;;;3.42;2.90;;;;;;;6.39;44.33;102112.00;5021425;28;20022;-51
2023/04/20 01:08:13;;;;;;;5.93;3.17;;;;;;;6.34;44.35;102106.91;5039634;28;20065;-52
2023/04/20 01:10:38;;;;;;;4.38;2.88;;;;;;;6.32;44.12;102100.81;5030514;28;20496;-54
2023/04/20 01:13:04;;;;;;;3.33;3.00;;;;;;;6.30;44.55;102100.88;5028635;28;20136;-54
2023/04/20 01:15:30;;;;;;;4.45;2.95;;;;;;;6.26;45.17;102108.97;5024164;28;20160;-53
2023/04/20 01:17:56;;;;;;;5.63;3.30;;;;;;;6.22;45.29;102095.03;5022477;28;20036;-54
2023/04/20 01:20:23;;;;;;;5.40;3.10;;;;;;;6.16;45.37;102090.00;5026454;28;20057;-51
2023/04/20 01:22:50;;;;;;;5.38;2.90;;;;;;;6.17;46.25;102081.16;5030260;28;20039;-50
2023/04/20 01:25:16;;;;;;;4.45;3.08;;;;;;;6.12;46.36;102085.75;5032213;28;20025;-52
2023/04/20 01:27:41;;;;;;;4.80;3.05;;;;;;;6.11;46.71;102081.38;5033506;28;20048;-52
2023/04/20 01:30:08;;;;;;;4.10;2.90;;;;;;;6.05;46.30;102081.63;5019922;28;20462;-54
2023/04/20 01:32:33;;;;;;;5.65;3.17;;;;;;;6.02;46.54;102084.38;5030467;28;20490;-51
2023/04/20 01:34:59;;;;;;;7.38;3.22;;;;;;;6.00;47.05;102080.97;5031077;28;20105;-53
2023/04/20 01:37:25;;;;;;;7.40;3.38;;;;;;;5.93;46.34;102069.75;5033017;28;20445;-51
2023/04/20 01:39:50;;;;;;;4.57;3.50;;;;;;;5.90;46.90;102067.22;5030455;28;20018;-52
2023/04/20 01:42:15;;;;;;;10.15;3.00;;;;;;;5.88;47.14;102062.00;5041666;28;20032;-52
2023/04/20 01:44:41;;;;;;;4.38;3.00;;;;;;;5.84;46.87;102059.53;5041534;28;20032;-53
2023/04/20 01:47:06;;;;;;;3.97;3.00;;;;;;;5.82;47.41;102049.03;5016091;28;20021;-51
2023/04/20 01:49:31;;;;;;;4.20;2.85;;;;;;;5.79;47.75;102045.66;5025502;28;20037;-52
2023/04/20 01:51:56;;;;;;;5.40;3.00;;;;;;;5.77;47.83;102056.25;5032979;28;20060;-54
2023/04/20 01:54:22;;;;;;;4.78;2.92;;;;;;;5.77;48.38;102051.00;5032811;28;20029;-54
2023/04/20 01:56:47;;;;;;;3.60;2.97;;;;;;;5.77;48.72;102047.50;5032725;28;20501;-50
2023/04/20 01:59:12;;;;;;;4.35;2.90;;;;;;;5.75;48.96;102044.91;5025551;28;20633;-52
2023/04/20 02:01:37;;;;;;;10.35;3.30;;;;;;;5.70;48.66;102031.91;5032857;28;20092;-51
2023/04/20 02:04:03;;;;;;;5.93;3.33;;;;;;;5.66;48.54;102032.06;5032706;28;20131;-50
2023/04/20 02:06:28;;;;;;;5.65;3.10;;;;;;;5.61;48.69;102021.69;5031665;28;20033;-53
2023/04/20 02:08:53;;;;;;;3.47;3.08;;;;;;;5.60;49.30;102029.69;5030991;28;20087;-55
2023/04/20 02:11:20;;;;;;;4.75;2.90;;;;;;;5.59;48.99;102023.53;5032358;28;20048;-51
2023/04/20 02:13:46;;;;;;;5.40;3.17;;;;;;;5.54;49.60;102018.41;5033958;28;20101;-53
2023/04/20 02:16:11;;;;;;;6.68;3.05;;;;;;;5.55;49.38;102012.25;5039406;28;20056;-52
2023/04/20 02:18:36;;;;;;;3.88;3.08;;;;;;;5.50;49.84;102014.19;5035669;28;20380;-54
2023/04/20 02:21:02;;;;;;;3.80;2.60;;;;;;;5.48;49.62;102015.16;5041804;28;20480;-51
2023/04/20 02:23:27;;;;;;;7.30;3.45;;;;;;;5.47;49.99;102013.44;5033843;28;20029;-55
2023/04/20 02:25:53;;;;;;;6.00;3.38;;;;;;;5.43;49.28;102009.19;5024683;28;20028;-53
2023/04/20 02:28:18;;;;;;;6.88;2.97;;;;;;;5.40;49.59;102004.06;5040260;28;20082;-53
2023/04/20 02:30:43;;;;;;;6.15;3.28;;;;;;;5.35;49.55;101999.78;5023924;28;20482;-51
2023/04/20 02:33:09;;;;;;;6.55;3.20;;;;;;;5.31;49.77;101998.19;5033892;28;20037;-54
2023/04/20 02:35:35;;;;;;;7.43;3.25;;;;;;;5.32;50.01;101993.78;5031280;28;20046;-53
2023/04/20 02:38:00;;;;;;;5.57;3.13;;;;;;;5.28;50.29;101994.78;5032529;28;20071;-51
2023/04/20 02:40:25;;;;;;;6.13;3.25;;;;;;;5.26;50.72;101996.63;5033803;28;20029;-51
2023/04/20 02:42:51;;;;;;;4.95;3.13;;;;;;;5.23;51.14;101996.72;5025310;28;20032;-54
2023/04/20 02:45:16;;;;;;;4.68;3.15;;;;;;;5.21;51.20;101988.03;5035320;28;20025;-51
2023/04/20 02:47:41;;;;;;;5.80;3.10;;;;;;;5.17;51.59;101985.50;5038231;28;20036;-56
2023/04/20 02:50:08;;;;;;;4.55;3.22;;;;;;;5.18;52.32;101986.38;5044441;28;20017;-50
2023/04/20 02:52:33;;;;;;;4.75;3.33;;;;;;;5.15;52.37;101983.84;5048259;28;20458;-50
2023/04/20 02:54:58;;;;;;;4.80;3.15;;;;;;;5.14;52.57;101982.97;5044508;28;20060;-54
2023/04/20 02:57:24;;;;;;;6.88;3.15;;;;;;;5.14;53.01;101982.13;5018485;28;20033;-50
2023/04/20 02:59:49;;;;;;;5.35;3.17;;;;;;;5.13;53.65;101978.63;5011860;28;20110;-49
2023/04/20 03:02:15;;;;;;;7.43;3.70;;;;;;;5.13;53.94;101981.28;5017047;28;20033;-54
2023/04/20 03:04:40;;;;;;;5.07;3.40;;;;;;;5.12;54.20;101978.69;5023788;28;20036;-52
2023/04/20 03:07:06;;;;;;;5.13;3.00;;;;;;;5.08;54.86;101975.31;5017043;28;20038;-54
2023/04/20 03:09:31;;;;;;;5.10;3.75;;;;;;;5.08;55.29;101974.44;5026121;28;20021;-51
2023/04/20 03:11:56;;;;;;;7.00;3.75;;;;;;;5.06;55.47;101971.84;5036699;28;20049;-51
2023/04/20 03:14:22;;;;;;;6.75;3.20;;;;;;;5.06;55.83;101963.09;5028140;28;20052;-50
2023/04/20 03:16:47;;;;;;;5.05;3.50;;;;;;;5.06;56.14;101955.19;5023233;28;20082;-51
2023/04/20 03:19:12;;;;;;;9.82;3.95;;;;;;;5.05;56.45;101956.97;5032178;28;20418;-53
2023/04/20 03:21:38;;;;;;;4.85;3.60;;;;;;;5.05;56.97;101954.34;5026343;28;20125;-52
2023/04/20 03:24:05;;;;;;;6.18;3.55;;;;;;;5.05;57.37;101948.22;5035345;28;20485;-50
2023/04/20 03:26:30;;;;;;;5.75;3.65;;;;;;;5.05;57.22;101943.81;5037392;28;20032;-50
2023/04/20 03:28:55;;;;;;;5.95;3.60;;;;;;;5.06;57.57;101949.94;5040872;28;20029;-51
2023/04/20 03:31:20;;;;;;;5.53;3.90;;;;;;;5.07;58.01;101947.25;5033053;28;20019;-50
2023/04/20 03:33:46;;;;;;;6.80;3.80;;;;;;;5.06;58.48;101942.03;5030390;28;20031;-51
2023/04/20 03:36:11;;;;;;;5.97;3.72;;;;;;;5.09;58.72;101952.47;5023846;28;20021;-51
2023/04/20 03:38:36;;;;;;;4.13;3.58;;;;;;;5.10;59.07;101943.66;5028825;28;20041;-51
2023/04/20 03:41:02;;;;;;;4.95;3.90;;;;;;;5.12;59.09;101947.09;5035961;28;20025;-51
2023/04/20 03:43:27;;;;;;;5.15;3.53;;;;;;;5.12;59.23;101937.41;5037484;28;20156;-50
2023/04/20 03:45:52;;;;;;;4.45;3.47;;;;;;;5.18;60.00;101920.53;5044735;28;20371;-51
2023/04/20 03:48:17;;;;;;;9.38;4.18;;;;;;;5.19;60.32;101925.72;5046460;28;20424;-52
2023/04/20 03:50:43;;;;;;;5.82;3.90;;;;;;;5.22;60.06;101919.50;5042475;28;20498;-51
2023/04/20 03:53:08;;;;;;;5.30;3.45;;;;;;;5.26;60.47;101925.50;5041329;28;20479;-52
2023/04/20 03:55:33;;;;;;;5.80;3.55;;;;;;;5.29;60.61;101923.63;5037701;28;20429;-51
2023/04/20 03:57:59;;;;;;;5.15;3.92;;;;;;;5.32;60.79;101920.88;5045561;28;20036;-52
2023/04/20 04:00:24;;;;;;;6.45;3.65;;;;;;;5.35;61.12;101915.50;5050036;28;20048;-53
2023/04/20 04:02:49;;;;;;;6.32;4.20;;;;;;;5.37;61.10;101911.00;5052447;28;20035;-54
2023/04/20 04:05:15;;;;;;;6.53;4.05;;;;;;;5.40;61.15;101917.97;5047795;28;20029;-53
2023/04/20 04:07:40;;;;;;;7.22;4.18;;;;;;;5.43;61.32;101919.59;5030263;28;20064;-51
2023/04/20 04:10:06;;;;;;;8.55;4.00;;;;;;;5.44;61.42;101914.28;5048528;28;20386;-52
2023/04/20 04:12:31;;;;;;;7.93;3.65;;;;;;;5.47;61.71;101908.03;5028938;28;20032;-51
2023/04/20 04:14:57;;;;;;;14.30;4.00;;;;;;;5.49;62.00;101903.56;5028339;28;20045;-52
2023/04/20 04:17:22;;;;;;;6.88;4.05;;;;;;;5.52;62.10;101899.03;5034412;28;20025;-52
2023/04/20 04:19:47;;;;;;;7.30;4.13;;;;;;;5.57;62.36;101906.78;5038461;28;20025;-53
2023/04/20 04:22:13;;;;;;;5.60;3.70;;;;;;;5.59;62.36;101898.81;5040349;28;20410;-50
2023/04/20 04:24:40;;;;;;;5.03;4.30;;;;;;;5.62;62.39;101893.41;5034419;28;20029;-52
2023/04/20 04:27:06;;;;;;;6.53;4.28;;;;;;;5.64;62.65;101897.69;5044236;28;20019;-52
2023/04/20 04:29:34;;;;;;;5.95;3.78;;;;;;;5.66;62.75;101895.00;5038746;28;20025;-53
2023/04/20 04:32:00;;;;;;;8.80;4.25;;;;;;;5.69;62.77;101889.63;5039444;28;20390;-55
2023/04/20 04:34:28;;;;;;;6.13;4.30;;;;;;;5.71;62.93;101875.47;5035844;28;20048;-52
2023/04/20 04:36:54;;;;;;;5.40;3.83;;;;;;;5.73;62.96;101871.00;5046898;28;20074;-54
2023/04/20 04:39:19;;;;;;;8.98;3.92;;;;;;;5.77;63.49;101868.25;5034231;28;20025;-52
2023/04/20 04:41:45;;;;;;;7.68;4.00;;;;;;;5.80;63.55;101865.47;5036057;28;20036;-52
2023/04/20 04:44:10;;;;;;;7.65;3.88;;;;;;;5.81;63.87;101861.91;5030460;28;20025;-52
2023/04/20 04:46:36;;;;;;;6.15;4.05;;;;;;;5.82;63.96;101863.63;5036225;28;20113;-52
2023/04/20 04:49:01;;;;;;;6.85;3.72;;;;;;;5.85;64.37;101859.09;5042759;28;20036;-54
2023/04/20 04:51:27;;;;;;;8.20;3.88;;;;;;;5.87;64.24;101851.13;5050226;28;20024;-52
2023/04/20 04:53:52;;;;;;;5.32;4.07;;;;;;;5.91;64.16;101865.88;5049585;28;20032;-55
2023/04/20 04:56:19;;;;;;;4.90;4.00;;;;;;;5.93;64.21;101857.00;5032810;28;20462;-52
2023/04/20 04:58:44;;;;;;;6.10;3.88;;;;;;;5.95;64.57;101856.94;5036831;28;20022;-55
2023/04/20 05:01:10;;;;;;;7.07;3.92;;;;;;;5.98;64.11;101853.34;5040971;28;20029;-54
2023/04/20 05:03:35;;;;;;;8.10;4.57;;;;;;;5.99;64.54;101852.44;5035524;28;20486;-54
2023/04/20 05:06:01;;;;;;;9.65;4.40;;;;;;;6.02;64.41;101845.25;5025899;28;20068;-55
2023/04/20 05:08:26;;;;;;;9.27;4.63;;;;;;;6.06;64.71;101854.75;5039971;28;20037;-55
2023/04/20 05:10:51;;;;;;;8.30;4.25;;;;;;;6.09;64.78;101856.41;5052219;28;20065;-55
2023/04/20 05:13:16;;;;;;;8.18;4.13;;;;;;;6.10;64.99;101851.06;5027597;28;20128;-54
2023/04/20 05:15:42;;;;;;;9.23;4.40;;;;;;;6.13;64.78;101852.72;5035865;28;20025;-54
2023/04/20 05:18:07;;;;;;;7.95;3.97;;;;;;;6.16;64.57;101844.69;5032940;28;20425;-54
2023/04/20 05:20:32;;;;;;;12.75;4.20;;;;;;;6.20;65.28;101850.69;5032827;28;20034;-52
2023/04/20 05:22:57;;;;;;;9.45;4.30;;;;;;;6.23;64.94;101856.69;5031471;28;20018;-55
2023/04/20 05:25:23;;;;;;;8.93;4.95;;;;;;;6.26;66.45;101856.56;5040597;28;20033;-52
2023/04/20 05:27:48;;;;;;;7.32;4.50;;;;;;;6.29;67.36;101852.91;5035778;28;20076;-53
2023/04/20 05:30:14;;;;;;;9.13;4.63;;;;;;;6.33;66.93;101853.66;5049584;28;20474;-55
2023/04/20 05:32:39;;;;;;;7.05;4.60;;;;;;;6.33;67.26;101857.16;5038575;28;20391;-56
2023/04/20 05:35:05;;;;;;;10.10;4.22;;;;;;;6.34;67.37;101853.59;5044464;28;20021;-52
2023/04/20 05:37:31;;;;;;;7.13;4.50;;;;;;;6.36;67.89;101851.75;5039096;28;20065;-53
2023/04/20 05:39:56;;;;;;;7.43;4.65;;;;;;;6.38;66.74;101849.91;5047160;28;20021;-53
2023/04/20 05:42:21;;;;;;;6.80;4.00;;;;;;;6.38;67.22;101857.81;5042148;28;20035;-55
2023/04/20 05:44:46;;;;;;;7.00;4.65;;;;;;;6.41;66.80;101859.44;5048333;28;20021;-52
2023/04/20 05:47:12;;;;;;;8.35;4.28;;;;;;;6.43;65.63;101847.06;5031508;28;20033;-54
2023/04/20 05:49:37;;;;;;;7.90;4.20;;;;;;;6.45;66.14;101842.59;5035233;28;20510;-53
2023/04/20 05:52:03;;;;;;;9.05;3.97;;;;;;;6.45;65.78;101838.16;5036374;28;20033;-54
2023/04/20 05:54:28;;;;;;;7.07;4.32;;;;;;;6.50;66.17;101845.88;5024198;28;20042;-54
2023/04/20 05:56:54;;;;;;;6.95;3.95;;;;;;;6.51;65.95;101837.00;5014026;28;20124;-53
2023/04/20 05:59:20;;;;;;;7.35;4.50;;;;;;;6.52;66.12;101836.09;5031407;28;20025;-53
2023/04/20 06:01:45;;;;;;;5.13;4.22;;;;;;;6.55;66.26;101841.25;5027285;28;20065;-54
2023/04/20 06:04:11;;;;;;;6.50;4.30;;;;;;;6.57;66.33;101838.53;5020195;28;20062;-51
2023/04/20 06:06:36;;;;;;;9.07;4.30;;;;;;;6.60;66.32;101841.06;5013455;28;20037;-52
2023/04/20 06:09:02;;;;;;;6.50;4.65;;;;;;;6.63;66.28;101827.72;5013580;28;20479;-50
2023/04/20 06:11:27;;;;;;;8.55;4.82;;;;;;;6.65;66.33;101834.63;5026740;28;20049;-51
2023/04/20 06:13:52;;;;;;;14.85;5.63;;;;;;;6.68;66.00;101828.38;5031247;28;20045;-53
2023/04/20 06:16:18;;;;;;;8.75;4.93;;;;;;;6.72;65.97;101824.66;5029261;28;20506;-51
2023/04/20 06:18:43;;;;;;;7.32;4.72;;;;;;;6.74;66.01;101824.59;5028649;28;20032;-52
2023/04/20 06:21:10;;;;;;;10.13;5.03;;;;;;;6.78;66.10;101828.84;5027899;28;20045;-52
2023/04/20 06:23:36;;;;;;;5.75;4.72;;;;;;;6.81;66.29;101818.09;5034435;28;20037;-51
2023/04/20 06:26:02;;;;;;;9.50;5.22;;;;;;;6.87;66.33;101823.13;5025737;28;20048;-51
2023/04/20 06:28:27;;;;;;;8.25;5.40;;;;;;;6.89;65.58;101823.91;5033803;28;20037;-51
2023/04/20 06:30:52;;;;;;;7.60;5.13;;;;;;;6.94;65.53;101818.41;5023328;28;20087;-53
2023/04/20 06:33:17;;;;;;;7.43;5.07;;;;;;;6.97;65.80;101820.91;5024733;28;20021;-50
2023/04/20 06:35:43;;;;;;;6.10;4.70;;;;;;;7.01;65.87;101819.84;5032039;28;20029;-51
2023/04/20 06:38:08;;;;;;;5.93;4.70;;;;;;;7.06;65.20;101822.28;5032563;28;20056;-53
2023/04/20 06:40:34;;;;;;;8.65;5.43;;;;;;;7.10;65.63;101805.38;5026160;28;20124;-52
2023/04/20 06:42:59;;;;;;;8.15;4.88;;;;;;;7.13;65.29;101811.38;5034778;28;20117;-53
2023/04/20 06:45:24;;;;;;;9.43;5.00;;;;;;;7.17;64.43;101815.56;5030292;28;20075;-51
2023/04/20 06:47:50;;;;;;;7.05;5.00;;;;;;;7.21;64.59;101813.63;5035167;28;20410;-52
2023/04/20 06:50:15;;;;;;;8.50;5.32;;;;;;;7.21;64.26;101809.22;5024412;28;20490;-51
2023/04/20 06:52:40;;;;;;;8.55;5.40;;;;;;;7.26;64.99;101802.84;5023259;28;20390;-54
2023/04/20 06:55:06;;;;;;;7.65;5.05;;;;;;;7.28;64.37;101809.78;5023084;28;20052;-51
2023/04/20 06:57:32;;;;;;;11.88;5.70;;;;;;;7.29;65.17;101813.28;5021275;28;20057;-53
2023/04/20 07:00:00;;;;;;;11.52;5.85;;;;;;;7.31;65.08;101809.66;5025958;28;20073;-52
2023/04/20 07:02:26;;;;;;;7.13;5.40;;;;;;;7.35;64.75;101805.06;5019412;28;20096;-54
2023/04/20 07:04:51;;;;;;;7.38;5.03;;;;;;;7.38;64.75;101799.63;5026064;28;20391;-53
2023/04/20 07:07:16;;;;;;;8.27;5.20;;;;;;;7.38;64.72;101807.56;5028931;28;20109;-51
2023/04/20 07:09:41;;;;;;;8.95;5.53;;;;;;;7.39;64.90;101799.56;5030254;28;20598;-50
2023/04/20 07:12:07;;;;;;;6.90;5.00;;;;;;;7.41;64.35;101807.41;5022377;28;20043;-53
2023/04/20 07:14:32;;;;;;;8.38;5.28;;;;;;;7.41;64.52;101803.00;5027304;28;20034;-54
2023/04/20 07:16:58;;;;;;;9.57;5.78;;;;;;;7.43;64.37;101795.00;5026907;28;20075;-53
2023/04/20 07:19:23;;;;;;;7.85;5.15;;;;;;;7.45;64.54;101797.56;5027174;28;20555;-53
2023/04/20 07:21:48;;;;;;;8.90;5.20;;;;;;;7.48;63.84;101803.56;5024498;28;20038;-50
2023/04/20 07:24:14;;;;;;;6.38;4.97;;;;;;;7.47;63.88;101806.25;5021714;28;20030;-50
2023/04/20 07:26:39;;;;;;;11.27;5.63;;;;;;;7.46;64.00;101801.91;5024392;28;20391;-51
2023/04/20 07:29:04;;;;;;;10.75;5.20;;;;;;;7.46;64.39;101807.19;5017873;28;20041;-50
2023/04/20 07:31:29;;;;;;;5.50;4.90;;;;;;;7.46;64.20;101813.34;5025176;28;20032;-50
2023/04/20 07:33:55;;;;;;;9.95;4.63;;;;;;;7.46;64.40;101813.34;5023428;28;20580;-50
2023/04/20 07:36:21;;;;;;;7.13;5.15;;;;;;;7.45;64.35;101811.63;5029083;28;20470;-52
2023/04/20 07:38:46;;;;;;;11.15;5.13;;;;;;;7.48;64.00;101806.19;5024507;28;20044;-51
2023/04/20 07:41:11;;;;;;;7.13;5.20;;;;;;;7.47;64.62;101803.63;5032685;28;20026;-49
2023/04/20 07:43:40;;;;;;;7.63;5.00;;;;;;;7.48;64.10;101808.84;5033929;28;20466;-50
2023/04/20 07:46:06;;;;;;;8.57;4.80;;;;;;;7.51;64.04;101797.25;5015205;28;20041;-52
2023/04/20 07:48:33;;;;;;;7.40;4.70;;;;;;;7.49;64.11;101807.88;5018339;28;20037;-50
2023/04/20 07:50:58;;;;;;;7.03;4.60;;;;;;;7.50;64.22;101808.75;5015953;28;20391;-50
2023/04/20 07:53:24;;;;;;;9.30;4.88;;;;;;;7.50;64.33;101806.97;5018613;28;20026;-50
2023/04/20 07:55:49;;;;;;;5.00;4.30;;;;;;;7.53;64.57;101806.81;5027576;28;20029;-50
2023/04/20 07:58:15;;;;;;;6.32;4.47;;;;;;;7.57;64.62;101808.38;5033779;28;20383;-51
2023/04/20 08:00:40;;;;;;;7.15;4.32;;;;;;;7.63;64.65;101806.34;5030426;28;20037;-54
2023/04/20 08:03:05;;;;;;;7.88;4.57;;;;;;;7.74;65.05;101801.41;5022266;28;20021;-50
2023/04/20 08:05:31;;;;;;;6.97;4.63;;;;;;;7.81;65.02;101799.31;5018556;28;20114;-50
2023/04/20 08:07:57;;;;;;;6.38;4.53;;;;;;;7.88;64.29;101803.38;5030366;28;20387;-49
2023/04/20 08:10:23;;;;;;;7.28;4.53;;;;;;;7.90;63.46;101798.88;5030506;28;20022;-50
2023/04/20 08:12:48;;;;;;;8.43;4.82;;;;;;;7.87;64.13;101796.38;5027035;28;20021;-53
2023/04/20 08:15:13;;;;;;;6.18;4.13;;;;;;;7.92;63.59;101789.91;5016658;28;20038;-50
2023/04/20 08:17:39;;;;;;;7.30;4.72;;;;;;;7.92;63.75;101784.63;5036526;28;20124;-53
2023/04/20 08:20:05;;;;;;;6.30;4.55;;;;;;;7.95;63.94;101789.75;5022985;28;20048;-51
2023/04/20 08:22:31;;;;;;;8.10;4.82;;;;;;;7.99;63.99;101779.88;5035578;28;20031;-51
2023/04/20 08:24:56;;;;;;;5.82;4.70;;;;;;;8.08;64.82;101779.41;5019829;28;20394;-50
2023/04/20 08:27:22;;;;;;;6.07;4.22;;;;;;;8.14;63.46;101779.13;5008129;28;20131;-49
2023/04/20 08:29:47;;;;;;;8.30;4.97;;;;;;;8.20;63.63;101782.38;5027649;28;20029;-49
2023/04/20 08:32:12;;;;;;;6.22;4.55;;;;;;;8.24;63.70;101782.13;5033826;28;20120;-50
2023/04/20 08:34:38;;;;;;;6.90;4.70;;;;;;;8.33;63.91;101771.06;5035205;28;20097;-50
2023/04/20 08:37:04;;;;;;;7.80;4.40;;;;;;;8.38;63.54;101770.84;5034321;28;20033;-51
2023/04/20 08:39:31;;;;;;;10.32;4.30;;;;;;;8.46;63.53;101763.38;5038933;28;20043;-50
2023/04/20 08:41:56;;;;;;;6.63;4.30;;;;;;;8.61;63.31;101760.81;5039665;28;20069;-51
2023/04/20 08:44:22;;;;;;;7.55;4.20;;;;;;;8.75;62.47;101760.09;5038878;28;21013;-52
2023/04/20 08:46:49;;;;;;;9.23;4.50;;;;;;;8.84;62.13;101749.00;5017278;28;20512;-52
2023/04/20 08:49:16;;;;;;;5.65;3.90;;;;;;;8.97;62.32;101755.31;5027171;28;20018;-53
2023/04/20 08:51:42;;;;;;;6.18;4.10;;;;;;;8.98;61.97;101751.75;5028724;28;20030;-51
2023/04/20 08:54:09;;;;;;;8.65;4.20;;;;;;;9.01;62.43;101748.94;5018536;28;20058;-49
2023/04/20 08:56:39;;;;;;;8.60;4.10;;;;;;;9.06;61.53;101752.19;5045443;28;20107;-53
2023/04/20 08:59:08;;;;;;;8.85;4.13;;;;;;;9.16;61.56;101747.22;5040404;28;20037;-52
2023/04/20 09:01:35;;;;;;;7.93;4.07;;;;;;;9.26;61.73;101750.22;5034663;28;20029;-51
2023/04/20 09:04:01;;;;;;;5.10;3.63;;;;;;;9.35;61.96;101736.41;5029271;28;20086;-50
2023/04/20 09:06:27;;;;;;;9.38;4.07;;;;;;;9.38;61.00;101746.84;5025705;28;20442;-51
2023/04/20 09:08:53;;;;;;;4.75;3.85;;;;;;;9.37;60.10;101739.81;5029574;28;20452;-50
2023/04/20 09:11:28;;;;;;;5.47;3.50;;;;;;;9.33;60.26;101734.81;5025757;28;20096;-50
2023/04/20 09:14:02;;;;;;;7.13;4.40;;;;;;;9.33;60.50;101740.09;5039438;28;20062;-51
2023/04/20 09:16:27;;;;;;;5.30;3.78;;;;;;;9.33;60.75;101748.06;5036253;28;20091;-51
2023/04/20 09:18:56;;;;;;;7.13;4.03;;;;;;;9.26;59.66;101743.09;5032433;28;20426;-50
2023/04/20 09:21:27;;;;;;;5.53;3.95;;;;;;;9.19;59.92;101735.56;5021361;28;20037;-51
2023/04/20 09:24:05;;;;;;;5.30;3.72;;;;;;;9.20;60.35;101747.91;5032551;28;20033;-50
2023/04/20 09:26:35;;;;;;;6.18;3.72;;;;;;;9.24;60.45;101742.34;5031081;28;20087;-53
2023/04/20 09:29:03;;;;;;;;;;;;;;;9.38;59.55;101746.84;5025575;28;20080;-52
2023/04/20 09:31:29;;;;;;;6.72;4.03;;;;;;;9.25;59.21;101736.06;5029922;28;19909;-50
2023/04/20 09:34:02;;;;;;;3.90;3.40;;;;;;;9.24;59.63;101736.16;5033014;28;20075;-52
2023/04/20 09:36:35;;;;;;;5.18;3.72;;;;;;;9.31;59.84;101742.84;5033046;28;20529;-52
2023/04/20 09:39:06;;;;;;;5.20;3.70;;;;;;;9.38;59.97;101738.91;5006723;28;20030;-52
2023/04/20 09:41:33;;;;;;;7.53;3.70;;;;;;;9.41;59.77;101743.19;5030731;28;20034;-50
2023/04/20 09:43:59;;;;;;;5.75;3.60;;;;;;;9.42;59.26;101736.91;5031431;28;20482;-50
2023/04/20 09:46:28;;;;;;;6.00;3.50;;;;;;;9.48;59.88;101739.22;5039309;28;20080;-48
2023/04/20 09:48:54;;;;;;;4.57;3.95;;;;;;;9.49;59.56;101732.97;5032022;28;20025;-48
2023/04/20 09:51:20;;;;;;;7.15;3.95;;;;;;;9.46;59.28;101735.81;5036176;28;20048;-48
2023/04/20 09:53:46;;;;;;;4.57;3.50;;;;;;;9.45;58.68;101734.09;5031666;28;20038;-47
2023/04/20 09:56:11;;;;;;;3.80;3.45;;;;;;;9.43;58.46;101728.88;5034737;28;20013;-48
2023/04/20 09:58:37;;;;;;;6.32;3.25;;;;;;;9.44;58.80;101716.47;5036216;28;20530;-51
2023/04/20 10:01:02;;;;;;;3.88;3.50;;;;;;;9.45;59.45;101724.34;5034381;28;20030;-50
2023/04/20 10:03:28;;;;;;;5.47;3.50;;;;;;;9.48;58.42;101703.91;5031899;28;20023;-53
2023/04/20 10:05:54;;;;;;;5.20;4.25;;;;;;;9.56;57.73;101709.59;5027711;28;20112;-51
2023/04/20 10:08:20;;;;;;;4.65;3.70;;;;;;;9.72;58.47;101701.59;5031974;28;20021;-52
2023/04/20 10:10:48;;;;;;;5.50;3.63;;;;;;;9.86;57.61;101708.72;5029701;28;20120;-51
2023/04/20 10:13:14;;;;;;;5.32;3.90;;;;;;;10.00;58.11;101699.00;5035613;28;20096;-52
2023/04/20 10:15:41;;;;;;;6.88;3.80;;;;;;;10.10;56.82;101701.09;5035399;28;20541;-51
2023/04/20 10:18:22;;;;;;;4.53;3.78;;;;;;;10.14;57.22;101705.25;5024813;28;20033;-53
2023/04/20 10:20:47;;;;;;;6.07;3.92;;;;;;;10.18;57.29;101699.69;5027606;28;20040;-60
2023/04/20 10:23:14;;;;;;;5.43;3.50;;;;;;;10.30;57.75;101702.53;5026424;28;20026;-50
2023/04/20 10:25:40;;;;;;;6.85;3.80;;;;;;;10.38;57.53;101700.28;5033898;28;20082;-52
2023/04/20 10:28:09;;;;;;;4.40;3.50;;;;;;;10.30;54.84;101705.19;5033546;28;20029;-53
2023/04/20 10:30:35;;;;;;;5.93;4.07;;;;;;;10.16;54.54;101696.28;5032204;28;20180;-51
2023/04/20 10:33:06;;;;;;;7.10;3.72;;;;;;;10.08;55.61;101703.84;5030271;28;20026;-50
2023/04/20 10:35:41;;;;;;;5.35;3.47;;;;;;;10.10;57.16;101693.97;5030460;28;20041;-48
2023/04/20 10:38:07;;;;;;;6.30;3.65;;;;;;;10.05;57.71;101698.72;5029732;28;20036;-50
2023/04/20 10:40:33;;;;;;;6.88;4.07;;;;;;;10.02;57.31;101687.44;5038400;28;20033;-50
2023/04/20 10:42:58;;;;;;;5.72;4.05;;;;;;;9.98;56.76;101692.94;5024093;28;20375;-48
2023/04/20 10:45:40;;;;;;;9.60;3.78;;;;;;;9.97;57.10;101693.03;5031904;28;20033;-48
2023/04/20 10:48:09;;;;;;;5.88;4.13;;;;;;;10.02;57.73;101679.47;5028731;28;20028;-47
2023/04/20 10:50:35;;;;;;;7.75;4.00;;;;;;;10.24;58.45;101686.97;5032262;28;20025;-51
2023/04/20 10:53:01;;;;;;;5.53;4.13;;;;;;;10.49;59.12;101673.03;5031348;28;20026;-52
2023/04/20 10:55:26;;;;;;;4.65;3.92;;;;;;;10.68;58.44;101667.44;5025460;28;20030;-52
2023/04/20 10:57:52;;;;;;;6.13;4.23;;;;;;;10.75;56.70;101674.06;5042357;28;20425;-51
2023/04/20 11:00:19;;;;;;;5.95;4.10;;;;;;;10.81;55.14;101686.97;5040316;28;20304;-50
2023/04/20 11:02:49;;;;;;;4.85;4.40;;;;;;;10.81;54.81;101671.00;5043689;28;20112;-53
2023/04/20 11:05:14;;;;;;;6.95;4.00;;;;;;;10.77;54.36;101669.47;5024413;28;20056;-53
2023/04/20 11:07:55;;;;;;;4.65;4.25;;;;;;;10.83;55.78;101681.53;5022722;28;20037;-51
2023/04/20 11:10:23;;;;;;;4.70;4.20;;;;;;;10.79;55.49;101670.25;5029794;28;20071;-51
2023/04/20 11:12:48;;;;;;;5.45;4.38;;;;;;;10.73;54.69;101673.31;5028054;28;20124;-50
2023/04/20 11:15:15;;;;;;;7.15;4.07;;;;;;;10.70;55.83;101670.84;5034047;28;20163;-51
2023/04/20 11:17:40;;;;;;;4.30;3.83;;;;;;;10.62;56.24;101675.78;5031789;28;20056;-52
2023/04/20 11:20:12;;;;;;;5.40;4.30;;;;;;;10.59;55.79;101670.66;5037373;28;20151;-51
2023/04/20 11:22:38;;;;;;;4.85;4.40;;;;;;;10.64;56.15;101665.91;5022455;28;20034;-51
2023/04/20 11:25:05;;;;;;;7.45;4.25;;;;;;;10.69;56.10;101663.81;5023955;28;20561;-51